Time;durP1;ratioP1;P1;durP2;ratioP2;P2;SDS_P1;SDS_P2;PMS_P1;PMS_P2;Temp;Humidity;BMP_temperature;BMP_pressure;BME280_temperature;BME280_humidity;BME280_pressure;Samples;Min_cycle;Max_cycle;Signal;HPM_P1;HPM_P2
2022/12/27 00:02:22;;;;;;;2.03;1.00;;;;;;;6.65;71.79;99969.25;5135969;28;20062;-72
2022/12/27 00:05:14;;;;;;;4.10;1.17;;;;;;;6.62;70.99;99985.25;5142289;28;20114;-71
2022/12/27 00:08:04;;;;;;;3.40;1.10;;;;;;;6.83;70.35;99986.59;5146226;28;20132;-72
2022/12/27 00:10:54;;;;;;;1.35;1.05;;;;;;;6.64;70.67;99992.13;5140122;28;20047;-73
2022/12/27 00:13:45;;;;;;;6.55;1.33;;;;;;;7.17;68.97;99992.38;5145783;28;20054;-73
2022/12/27 00:16:36;;;;;;;5.15;1.00;;;;;;;6.69;69.52;100003.25;5144529;28;20437;-73
2022/12/27 00:19:26;;;;;;;1.77;1.17;;;;;;;6.33;71.30;100003.72;5140758;28;20252;-72
2022/12/27 00:22:16;;;;;;;3.33;0.80;;;;;;;6.22;70.74;99996.44;5142353;28;20679;-72
2022/12/27 00:25:10;;;;;;;3.42;1.10;;;;;;;6.15;70.95;99999.53;5141737;28;20136;-71
2022/12/27 00:28:00;;;;;;;3.22;0.90;;;;;;;6.63;69.62;100018.59;5146005;28;20556;-71
2022/12/27 00:30:54;;;;;;;2.40;0.90;;;;;;;6.36;70.33;100019.34;5140383;28;20053;-72
2022/12/27 00:33:47;;;;;;;2.88;0.85;;;;;;;6.31;70.25;100021.38;5146285;28;20177;-74
2022/12/27 00:36:38;;;;;;;4.20;1.00;;;;;;;6.19;70.34;100036.13;5142602;28;20094;-73
2022/12/27 00:39:28;;;;;;;1.25;0.85;;;;;;;6.31;69.43;100021.38;5144245;28;20065;-73
2022/12/27 00:42:18;;;;;;;3.72;1.02;;;;;;;6.47;70.02;100040.59;5131811;28;20077;-72
2022/12/27 00:45:10;;;;;;;4.13;1.10;;;;;;;6.98;66.96;100032.22;5144671;28;20049;-72
2022/12/27 00:48:04;;;;;;;7.95;1.17;;;;;;;6.04;66.74;100045.78;5144003;28;20185;-73
2022/12/27 00:51:01;;;;;;;2.72;0.90;;;;;;;6.51;66.19;100052.63;5140711;28;20066;-72
2022/12/27 00:53:52;;;;;;;2.67;0.93;;;;;;;6.34;65.60;100053.66;5144290;28;20051;-71
2022/12/27 00:56:43;;;;;;;3.38;0.80;;;;;;;5.96;64.85;100069.06;5141656;28;20047;-72
2022/12/27 00:59:33;;;;;;;2.97;0.60;;;;;;;5.45;64.46;100078.91;5143276;28;20509;-72
2022/12/27 01:02:24;;;;;;;1.60;0.40;;;;;;;5.27;63.61;100077.31;5146650;28;20545;-73
2022/12/27 01:05:15;;;;;;;5.18;0.52;;;;;;;5.53;60.30;100073.22;5146147;28;20154;-72
2022/12/27 01:08:07;;;;;;;1.00;0.47;;;;;;;5.83;61.75;100089.09;5144780;28;20058;-69
2022/12/27 01:10:58;;;;;;;2.58;0.73;;;;;;;5.79;60.61;100095.44;5146998;28;20197;-72
2022/12/27 01:13:49;;;;;;;1.10;0.45;;;;;;;6.52;58.20;100093.88;5149557;28;20076;-72
2022/12/27 01:16:42;;;;;;;3.10;0.80;;;;;;;6.62;57.68;100103.84;5147092;28;20053;-72
2022/12/27 01:19:38;;;;;;;4.82;0.60;;;;;;;6.24;56.75;100114.88;5155039;28;20054;-73
2022/12/27 01:22:32;;;;;;;0.95;0.50;;;;;;;6.20;57.20;100119.47;5150821;28;20058;-71
2022/12/27 01:25:22;;;;;;;2.90;0.50;;;;;;;6.35;57.03;100120.34;5150537;28;20086;-71
2022/12/27 01:28:15;;;;;;;2.57;0.37;;;;;;;6.23;57.70;100131.63;5148628;28;20109;-72
2022/12/27 01:31:14;;;;;;;2.40;0.60;;;;;;;6.22;58.35;100133.38;5143967;28;20054;-72
2022/12/27 01:34:04;;;;;;;2.58;0.60;;;;;;;6.27;58.72;100149.78;5142224;28;20058;-70
2022/12/27 01:36:54;;;;;;;5.10;0.70;;;;;;;6.01;59.06;100147.78;5145538;28;20065;-71
2022/12/27 01:39:44;;;;;;;4.13;0.93;;;;;;;6.18;58.56;100152.09;5153620;28;20055;-71
2022/12/27 01:42:54;;;;;;;6.32;0.77;;;;;;;5.88;59.26;100152.84;5146340;28;20054;-70
2022/12/27 01:45:46;;;;;;;3.00;0.60;;;;;;;5.94;59.25;100159.59;5146089;28;20046;-71
2022/12/27 01:48:37;;;;;;;1.48;0.52;;;;;;;5.91;59.64;100160.56;5151035;28;20053;-72
2022/12/27 01:51:27;;;;;;;4.55;0.60;;;;;;;5.95;61.61;100171.81;5144429;28;20051;-72
2022/12/27 01:54:17;;;;;;;3.45;0.65;;;;;;;5.80;62.28;100171.72;5148717;28;20066;-74
2022/12/27 01:57:08;;;;;;;3.03;0.77;;;;;;;5.68;62.42;100153.09;5140918;28;20134;-72
2022/12/27 01:59:59;;;;;;;3.55;1.05;;;;;;;5.80;62.29;100170.84;5154898;28;20448;-70
2022/12/27 02:02:51;;;;;;;5.75;1.40;;;;;;;5.76;63.12;100179.84;5153129;28;20432;-70
2022/12/27 02:05:42;;;;;;;4.38;1.40;;;;;;;5.52;63.38;100180.25;5154179;28;20113;-74
2022/12/27 02:08:48;;;;;;;3.10;1.63;;;;;;;5.38;64.19;100167.84;5155667;28;20163;-70
2022/12/27 02:11:50;;;;;;;7.22;1.30;;;;;;;5.21;64.33;100167.03;5148815;28;20081;-71
2022/12/27 02:14:43;;;;;;;6.13;1.75;;;;;;;5.32;65.01;100189.19;5156789;28;20057;-71
2022/12/27 02:17:34;;;;;;;6.43;0.75;;;;;;;5.25;64.83;100186.97;5154952;28;20046;-71
2022/12/27 02:20:32;;;;;;;3.80;0.70;;;;;;;4.99;65.27;100135.75;5148703;28;20061;-70
2022/12/27 02:24:04;;;;;;;1.88;0.88;;;;;;;5.31;64.96;100186.66;5148541;28;20126;-72
2022/12/27 02:27:13;;;;;;;6.30;1.10;;;;;;;5.26;65.92;100191.31;5132750;28;20549;-71
2022/12/27 02:30:07;;;;;;;9.70;1.20;;;;;;;5.31;64.86;100191.91;5144174;28;20065;-72
2022/12/27 02:33:13;;;;;;;2.63;0.80;;;;;;;5.30;64.83;100190.22;5147215;28;20073;-73
2022/12/27 02:36:09;;;;;;;3.95;0.95;;;;;;;5.18;65.53;100189.94;5141464;28;20062;-71
2022/12/27 02:39:01;;;;;;;1.73;0.90;;;;;;;5.35;65.13;100190.81;5141107;28;20053;-71
2022/12/27 02:59:31;;;;;;;9.35;1.55;;;;;;;4.97;66.60;100204.19;5143782;28;20121;-73
2022/12/27 03:06:38;;;;;;;3.90;1.20;;;;;;;4.94;66.92;100199.94;5142533;28;20081;-73
2022/12/27 03:16:14;;;;;;;5.07;1.00;;;;;;;4.79;68.20;100220.88;5150310;28;20042;-71
2022/12/27 03:25:26;;;;;;;5.85;1.30;;;;;;;4.92;68.48;100206.19;5141943;28;20054;-71
2022/12/27 03:25:41;;;;;;;5.40;1.40;;;;;;;4.54;67.56;100200.25;5143351;28;20505;-71
2022/12/27 03:35:16;;;;;;;6.00;1.20;;;;;;;4.64;68.33;100228.63;5151723;28;20064;-71
2022/12/27 03:38:11;;;;;;;10.55;1.98;;;;;;;4.68;68.16;100232.78;5142233;28;20113;-72
2022/12/27 03:44:25;;;;;;;4.53;1.65;;;;;;;4.41;68.42;100219.25;5141271;28;20050;-72
2022/12/27 03:47:33;;;;;;;6.47;1.60;;;;;;;4.76;68.23;100227.13;5127643;28;20058;-71
2022/12/27 03:50:42;;;;;;;8.18;1.33;;;;;;;4.75;68.24;100219.34;5143772;28;20523;-72
2022/12/27 03:53:40;;;;;;;6.50;1.40;;;;;;;4.80;68.19;100228.72;5149034;28;20053;-72
2022/12/27 03:56:31;;;;;;;6.20;1.60;;;;;;;4.71;68.66;100240.53;5140615;28;20054;-72
2022/12/27 03:59:26;;;;;;;5.30;1.90;;;;;;;4.65;68.40;100246.06;5141285;28;20265;-73
2022/12/27 04:02:16;;;;;;;5.03;1.20;;;;;;;4.76;67.20;100237.66;5142801;28;20058;-71
2022/12/27 04:05:07;;;;;;;3.92;1.33;;;;;;;4.66;68.28;100239.88;5144601;28;20052;-71
2022/12/27 04:36:28;;;;;;;8.80;1.80;;;;;;;4.05;68.05;100240.22;5146680;28;20152;-73
2022/12/27 04:39:18;;;;;;;5.88;1.42;;;;;;;3.92;67.75;100232.06;5148455;28;20759;-71
2022/12/27 04:54:57;;;;;;;2.65;1.38;;;;;;;3.72;68.62;100240.84;5149811;28;20050;-73
2022/12/27 04:57:48;;;;;;;3.50;1.20;;;;;;;3.70;69.33;100247.09;5178642;28;20062;-71
2022/12/27 05:03:52;;;;;;;2.05;1.60;;;;;;;3.53;68.69;100243.44;5145152;28;20054;-70
2022/12/27 05:06:42;;;;;;;;;;;;;;;3.84;69.44;100263.06;5151346;28;20154;-71
2022/12/27 05:15:54;;;;;;;2.05;1.30;;;;;;;3.56;70.72;100267.84;5153696;28;20103;-73
2022/12/27 05:18:44;;;;;;;7.40;1.55;;;;;;;3.50;69.99;100269.81;5144556;28;20109;-71
2022/12/27 05:21:36;;;;;;;4.72;1.40;;;;;;;3.56;69.47;100268.69;5148465;28;20433;-70
2022/12/27 05:27:34;;;;;;;6.90;1.38;;;;;;;3.31;69.32;100274.16;5151861;28;20050;-71
2022/12/27 05:30:25;;;;;;;5.28;1.33;;;;;;;3.19;69.24;100272.09;5145791;28;20047;-72
2022/12/27 05:33:15;;;;;;;1.45;1.13;;;;;;;3.24;69.15;100281.44;5152654;28;20054;-73
2022/12/27 05:36:06;;;;;;;2.85;1.35;;;;;;;3.22;69.38;100266.72;5148075;28;20475;-74
2022/12/27 05:38:57;;;;;;;4.03;1.42;;;;;;;3.16;69.40;100282.69;5143282;28;20069;-71
2022/12/27 05:41:48;;;;;;;4.63;1.52;;;;;;;3.22;69.76;100285.91;5145208;28;20112;-72
2022/12/27 05:44:38;;;;;;;4.35;1.15;;;;;;;3.39;69.45;100287.78;5146337;28;20113;-70
2022/12/27 05:47:28;;;;;;;7.38;1.55;;;;;;;3.17;68.71;100287.00;5125829;28;20772;-71
2022/12/27 05:50:19;;;;;;;4.13;1.27;;;;;;;3.09;69.83;100295.22;5148838;28;20180;-71
2022/12/27 05:53:12;;;;;;;6.47;1.45;;;;;;;3.04;69.48;100286.66;5148537;28;20105;-72
2022/12/27 05:56:03;;;;;;;8.18;1.90;;;;;;;2.96;71.13;100294.00;5145111;28;20161;-72
2022/12/27 05:58:53;;;;;;;10.27;2.45;;;;;;;3.01;73.49;100285.06;5146477;28;20054;-72
2022/12/27 06:01:43;;;;;;;4.70;2.58;;;;;;;3.33;71.52;100295.06;5151892;28;20050;-70
2022/12/27 06:04:33;;;;;;;4.78;2.15;;;;;;;3.30;71.47;100296.06;5152394;28;20058;-70
2022/12/27 06:07:24;;;;;;;6.80;2.20;;;;;;;3.24;71.44;100299.78;5140789;28;20065;-70
2022/12/27 06:10:14;;;;;;;4.78;1.88;;;;;;;3.24;70.60;100297.16;5143562;28;20046;-71
2022/12/27 06:13:04;;;;;;;4.35;1.50;;;;;;;3.23;71.01;100292.00;5148899;28;20055;-70
2022/12/27 06:15:57;;;;;;;5.18;1.83;;;;;;;3.28;69.68;100296.13;5150238;28;20421;-72
2022/12/27 06:18:47;;;;;;;7.22;1.58;;;;;;;3.10;71.02;100294.28;5157050;28;20050;-71
2022/12/27 06:21:38;;;;;;;3.75;1.80;;;;;;;2.99;70.28;100302.59;5155701;28;20065;-70
2022/12/27 06:24:27;;;;;;;5.57;1.83;;;;;;;2.95;70.58;100293.16;5145690;28;20573;-73
2022/12/27 06:27:17;;;;;;;7.57;2.35;;;;;;;3.09;70.33;100289.97;5147669;28;20428;-71
2022/12/27 06:30:11;;;;;;;6.38;2.08;;;;;;;3.15;69.96;100304.59;5149470;28;20054;-70
2022/12/27 06:33:00;;;;;;;4.55;1.85;;;;;;;2.82;69.58;100292.81;5139809;28;20205;-71
2022/12/27 06:35:50;;;;;;;8.05;2.00;;;;;;;2.85;69.13;100309.31;5149255;28;20155;-71
2022/12/27 06:38:42;;;;;;;5.57;1.63;;;;;;;2.74;69.16;100312.38;5149660;28;20057;-73
2022/12/27 06:41:32;;;;;;;3.25;1.75;;;;;;;2.70;69.83;100302.94;5149199;28;20584;-71
2022/12/27 06:44:22;;;;;;;2.85;1.70;;;;;;;2.76;69.63;100316.63;5143482;28;20524;-70
2022/12/27 06:47:12;;;;;;;5.80;2.33;;;;;;;2.82;70.20;100319.00;5147235;28;20050;-71
2022/12/27 06:50:03;;;;;;;9.40;1.98;;;;;;;2.92;70.39;100319.50;5148927;28;20043;-70
2022/12/27 06:52:53;;;;;;;7.20;2.20;;;;;;;2.73;70.69;100313.28;5139170;28;20054;-72
2022/12/27 06:55:43;;;;;;;5.07;1.88;;;;;;;2.73;70.29;100324.63;5142670;28;20487;-70
2022/12/27 06:58:33;;;;;;;3.22;2.08;;;;;;;2.65;69.63;100321.47;5141265;28;20105;-72
2022/12/27 07:01:25;;;;;;;5.65;1.90;;;;;;;2.61;69.81;100319.00;5143456;28;20057;-72
2022/12/27 07:04:15;;;;;;;5.25;2.88;;;;;;;2.85;70.60;100330.25;5140918;28;20054;-71
2022/12/27 07:07:05;;;;;;;8.82;2.10;;;;;;;2.80;70.25;100331.31;5149975;28;20069;-72
2022/12/27 07:10:02;;;;;;;6.45;2.22;;;;;;;2.74;70.94;100339.41;5150481;28;20428;-70
2022/12/27 07:12:53;;;;;;;5.15;2.33;;;;;;;2.60;70.74;100333.88;5143779;28;20066;-70
2022/12/27 07:15:42;;;;;;;5.15;2.40;;;;;;;2.72;71.06;100341.25;5145186;28;20177;-71
2022/12/27 07:18:33;;;;;;;7.07;2.17;;;;;;;2.59;71.16;100340.03;5141999;28;20090;-71
2022/12/27 07:21:26;;;;;;;3.97;1.95;;;;;;;2.75;71.01;100348.16;5144293;28;20054;-71
2022/12/27 07:24:16;;;;;;;5.43;2.60;;;;;;;2.96;70.48;100351.66;5147688;28;20101;-74
2022/12/27 07:27:06;;;;;;;23.58;7.82;;;;;;;2.89;69.82;100335.34;5147360;28;20694;-70
2022/12/27 07:29:56;;;;;;;9.25;2.85;;;;;;;2.77;70.28;100317.47;5145094;28;20193;-70
2022/12/27 07:32:46;;;;;;;4.47;2.42;;;;;;;2.81;70.21;100346.13;5144548;28;20042;-70
2022/12/27 07:35:37;;;;;;;2.97;1.95;;;;;;;2.78;69.98;100350.59;5145910;28;20098;-72
2022/12/27 07:38:33;;;;;;;5.07;2.33;;;;;;;2.71;70.17;100357.84;5141673;28;20137;-69
2022/12/27 07:41:24;;;;;;;7.38;2.20;;;;;;;2.67;69.98;100347.56;5139722;28;20059;-71
2022/12/27 07:44:15;;;;;;;4.72;2.15;;;;;;;2.63;70.04;100365.19;5146321;28;20440;-71
2022/12/27 07:47:05;;;;;;;6.32;2.40;;;;;;;2.66;70.02;100367.69;5140559;28;20050;-72
2022/12/27 07:49:55;;;;;;;3.60;2.08;;;;;;;2.56;69.76;100356.72;5143926;28;20050;-71
2022/12/27 07:52:46;;;;;;;7.10;2.78;;;;;;;2.59;70.05;100355.75;5141778;28;20074;-70
2022/12/27 07:55:36;;;;;;;4.70;2.38;;;;;;;2.66;70.41;100359.81;5143347;28;20053;-71
2022/12/27 07:58:27;;;;;;;5.72;2.30;;;;;;;2.83;70.79;100346.91;5142898;28;20073;-71
2022/12/27 08:01:19;;;;;;;8.77;3.00;;;;;;;2.81;70.40;100348.75;5144958;28;20089;-70
2022/12/27 08:04:10;;;;;;;5.47;2.88;;;;;;;2.79;70.47;100344.47;5142111;28;20073;-70
2022/12/27 08:07:17;;;;;;;3.42;2.63;;;;;;;2.80;70.75;100352.25;5147294;28;20679;-71
2022/12/27 08:10:08;;;;;;;7.25;2.30;;;;;;;2.84;70.07;100342.50;5143543;28;20414;-70
2022/12/27 08:12:58;;;;;;;6.15;2.65;;;;;;;2.99;70.43;100351.53;5144698;28;20046;-71
2022/12/27 08:15:51;;;;;;;8.85;2.95;;;;;;;3.09;69.66;100334.50;5139389;28;20050;-72
2022/12/27 08:18:41;;;;;;;8.20;2.70;;;;;;;3.12;70.03;100357.13;5141545;28;20077;-70
2022/12/27 08:21:31;;;;;;;7.10;2.72;;;;;;;3.13;70.68;100362.28;5138171;28;20421;-71
2022/12/27 08:24:21;;;;;;;5.97;3.17;;;;;;;3.16;70.22;100358.69;5150339;28;20050;-71
2022/12/27 08:27:11;;;;;;;8.57;3.53;;;;;;;3.12;70.42;100359.75;5145244;28;20047;-71
2022/12/27 08:30:02;;;;;;;10.90;4.38;;;;;;;3.17;70.45;100355.16;5141865;28;20189;-72
2022/12/27 08:32:53;;;;;;;12.18;4.45;;;;;;;3.23;69.83;100355.75;5141165;28;20047;-71
2022/12/27 08:35:44;;;;;;;10.98;3.38;;;;;;;3.22;70.47;100372.41;5140808;28;20523;-73
2022/12/27 08:38:44;;;;;;;7.63;4.50;;;;;;;3.23;71.02;100368.00;5137213;28;20054;-73
2022/12/27 08:41:34;;;;;;;9.88;4.00;;;;;;;3.41;70.56;100367.25;5139705;28;20047;-72
2022/12/27 08:44:26;;;;;;;18.67;8.23;;;;;;;3.51;70.28;100363.31;5131456;28;20055;-74
2022/12/27 08:47:18;;;;;;;18.27;10.15;;;;;;;3.54;70.67;100367.56;5143397;28;20121;-71
2022/12/27 08:50:09;;;;;;;20.77;10.63;;;;;;;3.51;70.40;100365.94;5136403;28;20042;-72
2022/12/27 08:53:01;;;;;;;25.88;12.27;;;;;;;3.61;70.49;100371.66;5143536;28;20050;-71
2022/12/27 08:55:54;;;;;;;25.92;13.70;;;;;;;3.61;70.66;100374.28;5140609;28;20133;-70
2022/12/27 08:58:48;;;;;;;24.63;13.40;;;;;;;3.60;70.74;100371.69;5141231;28;20043;-69
2022/12/27 09:01:38;;;;;;;23.63;12.05;;;;;;;3.73;70.86;100360.59;5144740;28;20405;-72
2022/12/27 09:04:28;;;;;;;23.75;12.57;;;;;;;3.88;70.32;100368.75;5144271;28;20490;-71
2022/12/27 09:07:18;;;;;;;24.88;11.98;;;;;;;4.00;70.87;100365.53;5148550;28;20097;-72
2022/12/27 09:10:08;;;;;;;24.88;12.75;;;;;;;4.01;70.12;100372.53;5140375;28;20480;-71
2022/12/27 09:12:59;;;;;;;23.23;11.57;;;;;;;4.12;70.59;100370.25;5141565;28;20129;-71
2022/12/27 09:15:49;;;;;;;20.70;11.00;;;;;;;4.06;69.90;100343.44;5140128;28;20564;-71
2022/12/27 09:18:41;;;;;;;20.67;10.98;;;;;;;4.31;70.40;100367.66;5139889;28;20537;-71
2022/12/27 09:21:33;;;;;;;19.35;9.30;;;;;;;4.43;70.30;100361.81;5138346;28;20214;-71
2022/12/27 09:24:23;;;;;;;13.43;6.13;;;;;;;4.64;69.48;100374.88;5137868;28;21153;-71
2022/12/27 09:27:13;;;;;;;11.45;5.90;;;;;;;4.69;70.10;100378.13;5135511;28;20132;-70
2022/12/27 09:30:05;;;;;;;8.02;4.68;;;;;;;4.72;70.03;100378.00;5142559;28;20133;-70
2022/12/27 09:32:57;;;;;;;8.32;5.50;;;;;;;4.91;70.55;100393.75;5142900;28;20058;-71
2022/12/27 09:35:47;;;;;;;24.60;5.28;;;;;;;4.90;68.92;100371.00;5137679;28;20046;-73
2022/12/27 09:38:39;;;;;;;7.53;4.10;;;;;;;5.10;68.53;100389.31;5136687;28;20532;-69
2022/12/27 09:42:02;;;;;;;12.85;4.22;;;;;;;5.13;68.21;100394.41;5135428;28;20055;-71
2022/12/27 09:45:20;;;;;;;7.82;3.20;;;;;;;5.30;67.45;100390.94;5135690;28;20423;-72
2022/12/27 09:48:20;;;;;;;8.40;3.30;;;;;;;5.53;67.77;100391.56;5142186;28;20088;-73
2022/12/27 09:51:30;;;;;;;6.97;3.92;;;;;;;5.53;66.96;100384.53;5142232;28;20188;-73
2022/12/27 09:54:39;;;;;;;8.82;4.30;;;;;;;5.76;67.10;100379.84;5140968;28;20389;-73
2022/12/27 09:57:34;;;;;;;10.77;4.32;;;;;;;5.89;67.76;100394.06;5136719;28;20075;-71
2022/12/27 10:00:25;;;;;;;7.43;3.83;;;;;;;5.88;67.47;100376.59;5152355;28;20063;-71
2022/12/27 10:03:26;;;;;;;12.25;4.57;;;;;;;6.07;67.48;100372.09;5141578;28;20055;-71
2022/12/27 10:06:35;;;;;;;8.95;4.72;;;;;;;6.05;66.99;100373.94;5138952;28;20061;-74
2022/12/27 10:09:39;;;;;;;10.70;5.80;;;;;;;6.13;67.16;100385.88;5139186;28;20540;-72
2022/12/27 10:12:40;;;;;;;6.95;3.95;;;;;;;6.15;68.03;100379.56;5145747;28;20054;-73
2022/12/27 10:16:09;;;;;;;7.75;3.10;;;;;;;6.21;66.43;100386.31;5142448;28;20436;-71
2022/12/27 10:19:08;;;;;;;4.88;2.92;;;;;;;6.44;65.62;100391.19;5141359;28;20068;-71
2022/12/27 10:22:04;;;;;;;8.68;2.75;;;;;;;6.49;65.72;100378.63;5131698;28;20379;-70
2022/12/27 10:24:59;;;;;;;8.02;3.13;;;;;;;6.55;65.65;100370.34;5142318;28;20051;-72
2022/12/27 10:27:57;;;;;;;6.30;3.08;;;;;;;6.62;65.45;100378.78;5149574;28;20138;-70
2022/12/27 10:30:47;;;;;;;6.35;2.88;;;;;;;6.90;64.65;100364.91;5139926;28;20053;-71
2022/12/27 10:33:37;;;;;;;9.10;2.50;;;;;;;7.16;63.66;100363.44;5145832;28;20154;-70
2022/12/27 10:36:29;;;;;;;9.32;2.47;;;;;;;7.14;63.76;100370.56;5135834;28;21019;-70
2022/12/27 10:39:26;;;;;;;6.13;2.75;;;;;;;7.08;63.29;100363.00;5137259;28;20545;-72
2022/12/27 10:42:37;;;;;;;4.95;2.25;;;;;;;7.12;63.94;100361.91;5141369;28;20073;-71
2022/12/27 10:45:38;;;;;;;11.25;2.42;;;;;;;7.15;63.64;100360.88;5136798;28;20042;-70
2022/12/27 10:48:28;;;;;;;6.57;2.28;;;;;;;7.11;63.16;100354.06;5141322;28;20058;-70
2022/12/27 10:51:40;;;;;;;6.65;2.40;;;;;;;7.22;63.42;100365.72;5138349;28;20062;-72
2022/12/27 10:54:30;;;;;;;9.68;2.40;;;;;;;7.22;63.30;100352.53;5145318;28;20053;-71
2022/12/27 10:57:34;;;;;;;6.20;2.60;;;;;;;7.17;63.06;100359.84;5139779;28;20666;-68
2022/12/27 11:00:24;;;;;;;7.03;2.42;;;;;;;7.22;62.50;100339.34;5136285;28;20088;-71
2022/12/27 11:03:18;;;;;;;11.63;2.25;;;;;;;7.43;61.99;100354.84;5138037;28;20557;-71
2022/12/27 11:06:22;;;;;;;5.10;1.27;;;;;;;7.59;61.82;100354.78;5138173;28;20172;-70
2022/12/27 11:09:32;;;;;;;6.53;1.48;;;;;;;7.56;62.17;100350.53;5141562;28;20055;-70
2022/12/27 11:12:27;;;;;;;5.45;1.23;;;;;;;7.59;61.77;100349.50;5146374;28;20065;-70
2022/12/27 11:15:18;;;;;;;6.50;1.25;;;;;;;7.75;60.14;100355.56;5137880;28;20078;-73
2022/12/27 11:18:17;;;;;;;6.07;1.30;;;;;;;7.96;60.06;100348.13;5138102;28;20141;-71
2022/12/27 11:21:11;;;;;;;4.35;1.48;;;;;;;7.81;61.14;100341.97;5143770;28;20043;-74
2022/12/27 11:24:18;;;;;;;6.53;0.82;;;;;;;8.20;57.75;100332.53;5141964;28;20050;-71
2022/12/27 11:27:18;;;;;;;;;;;;;;;8.18;58.24;100347.66;5138501;28;20047;-72
2022/12/27 11:30:30;;;;;;;6.28;1.10;;;;;;;8.56;56.81;100347.06;5132535;28;20119;-72
2022/12/27 11:33:23;;;;;;;7.47;1.52;;;;;;;8.21;58.86;100342.16;5134881;28;20205;-72
2022/12/27 11:36:24;;;;;;;8.88;1.27;;;;;;;8.62;56.24;100349.31;5136002;28;20090;-73
2022/12/27 11:39:46;;;;;;;3.40;1.05;;;;;;;8.65;56.31;100347.31;5130404;28;20694;-73
2022/12/27 11:42:41;;;;;;;7.82;1.15;;;;;;;8.33;59.21;100343.19;5133395;28;20078;-73
2022/12/27 11:45:39;;;;;;;5.28;1.17;;;;;;;8.18;58.29;100347.66;5130887;28;20070;-72
2022/12/27 11:48:37;;;;;;;7.18;1.23;;;;;;;8.15;57.15;100343.41;5147467;28;20051;-72
2022/12/27 11:51:58;;;;;;;5.82;1.27;;;;;;;8.12;57.98;100342.75;5148131;28;20050;-70
2022/12/27 11:54:58;;;;;;;7.10;1.00;;;;;;;8.08;58.04;100331.53;5137733;28;21222;-71
2022/12/27 11:58:16;;;;;;;4.93;1.33;;;;;;;8.10;58.97;100342.84;5134313;28;20164;-72
2022/12/27 12:01:28;;;;;;;3.15;1.00;;;;;;;8.02;60.62;100331.06;5136026;28;20097;-72
2022/12/27 12:04:24;;;;;;;6.55;1.25;;;;;;;8.20;58.49;100332.53;5138667;28;20517;-73
2022/12/27 12:07:22;;;;;;;3.75;1.55;;;;;;;8.26;59.73;100337.44;5136753;28;20587;-70
2022/12/27 12:10:48;;;;;;;5.65;2.13;;;;;;;8.29;59.11;100337.25;5135430;28;20051;-72
2022/12/27 12:13:47;;;;;;;5.90;2.08;;;;;;;8.58;59.60;100339.91;5135889;28;20058;-71
2022/12/27 12:16:50;;;;;;;5.45;1.73;;;;;;;8.73;58.22;100338.88;5135003;28;20054;-71
2022/12/27 12:20:12;;;;;;;6.15;1.85;;;;;;;8.75;57.06;100344.94;5138067;28;20418;-73
2022/12/27 12:23:11;;;;;;;4.50;1.60;;;;;;;9.00;56.23;100340.69;5137429;28;20070;-71
2022/12/27 12:26:24;;;;;;;9.48;3.10;;;;;;;8.87;56.80;100332.69;5138409;28;20113;-71
2022/12/27 12:29:35;;;;;;;2.60;1.50;;;;;;;8.92;56.76;100326.16;5132821;28;20057;-71
2022/12/27 12:32:53;;;;;;;3.90;1.90;;;;;;;8.97;57.58;100335.59;5127225;28;20552;-71
2022/12/27 12:36:03;;;;;;;8.43;2.15;;;;;;;8.70;56.60;100310.84;5128020;28;20091;-72
2022/12/27 12:39:05;;;;;;;9.63;2.03;;;;;;;8.80;57.05;100324.31;5135954;28;20169;-71
2022/12/27 12:42:29;;;;;;;8.15;1.70;;;;;;;9.12;55.71;100324.00;5131766;28;20054;-71
2022/12/27 12:45:37;;;;;;;6.43;1.98;;;;;;;9.23;55.52;100318.00;5139146;28;20061;-71
2022/12/27 12:49:02;;;;;;;3.10;1.35;;;;;;;9.27;55.31;100320.34;5156988;28;20054;-72
2022/12/27 12:52:31;;;;;;;6.80;1.70;;;;;;;9.19;56.89;100320.00;5137622;28;20051;-72
2022/12/27 12:55:59;;;;;;;6.93;1.75;;;;;;;9.24;57.75;100325.84;5151630;28;20101;-73
2022/12/27 12:59:26;;;;;;;3.15;1.85;;;;;;;9.36;57.34;100321.50;5141451;28;20135;-72
2022/12/27 13:02:46;;;;;;;11.48;2.10;;;;;;;9.48;59.22;100325.16;5146225;28;20058;-72
2022/12/27 13:05:51;;;;;;;10.40;2.00;;;;;;;9.54;55.41;100327.38;5138626;28;20046;-74
2022/12/27 13:09:12;;;;;;;5.07;2.05;;;;;;;9.69;56.48;100312.22;5139568;28;20047;-72
2022/12/27 13:12:21;;;;;;;4.25;1.73;;;;;;;9.79;55.46;100311.47;5148059;28;20054;-73
2022/12/27 13:15:41;;;;;;;4.82;2.05;;;;;;;9.66;58.58;100310.63;5137368;28;20173;-71
2022/12/27 13:19:02;;;;;;;4.95;1.90;;;;;;;9.57;58.19;100304.19;5149865;28;20078;-73
2022/12/27 13:22:02;;;;;;;8.98;2.17;;;;;;;9.44;59.52;100307.75;5140670;28;20081;-72
2022/12/27 13:25:04;;;;;;;7.70;2.00;;;;;;;9.46;58.30;100309.34;5135842;28;20509;-73
2022/12/27 13:28:19;;;;;;;4.45;1.80;;;;;;;9.57;55.64;100309.47;5134724;28;20675;-71
2022/12/27 13:31:36;;;;;;;10.50;2.20;;;;;;;9.39;56.95;100284.25;5133536;28;20185;-71
2022/12/27 13:34:57;;;;;;;6.63;1.40;;;;;;;9.36;56.90;100295.88;5135237;28;20141;-71
2022/12/27 13:38:17;;;;;;;7.00;1.30;;;;;;;9.13;56.04;100288.66;5136867;28;20054;-71
2022/12/27 13:41:27;;;;;;;4.43;1.25;;;;;;;9.24;58.24;100286.16;5152176;28;20046;-71
2022/12/27 13:44:40;;;;;;;3.80;1.50;;;;;;;9.19;58.52;100288.25;5136628;28;20178;-71
2022/12/27 13:48:27;;;;;;;7.00;1.80;;;;;;;9.06;58.82;100287.38;5135738;28;20059;-71
2022/12/27 13:51:35;;;;;;;6.55;1.65;;;;;;;9.13;58.87;100278.91;5136028;28;20058;-70
2022/12/27 13:54:41;;;;;;;3.75;1.50;;;;;;;9.20;58.56;100275.84;5133062;28;20081;-71
2022/12/27 13:58:08;;;;;;;7.35;2.13;;;;;;;9.12;58.21;100276.38;5133288;28;20057;-70
2022/12/27 14:01:27;;;;;;;5.57;1.70;;;;;;;9.09;58.88;100276.59;5138860;28;20169;-71
2022/12/27 14:04:24;;;;;;;7.95;2.47;;;;;;;8.99;58.53;100265.78;5137084;28;20109;-72
2022/12/27 14:07:38;;;;;;;9.65;2.30;;;;;;;9.06;59.03;100277.63;5123401;28;20504;-71
2022/12/27 14:10:46;;;;;;;6.38;2.03;;;;;;;8.96;58.69;100260.69;5133860;28;20134;-71
2022/12/27 14:13:42;;;;;;;4.07;1.80;;;;;;;8.98;58.94;100265.88;5135350;28;20042;-70
2022/12/27 14:16:53;;;;;;;7.93;2.50;;;;;;;8.97;58.97;100272.09;5142284;28;20145;-71
2022/12/27 14:20:07;;;;;;;5.03;1.90;;;;;;;8.90;59.40;100271.66;5140958;28;20054;-72
2022/12/27 14:23:29;;;;;;;5.65;2.03;;;;;;;8.82;59.83;100266.91;5136919;28;20047;-71
2022/12/27 14:26:50;;;;;;;3.35;1.90;;;;;;;8.82;59.07;100269.53;5134458;28;20066;-73
2022/12/27 14:30:08;;;;;;;7.47;2.00;;;;;;;8.73;59.27;100271.94;5139869;28;20141;-71
2022/12/27 14:33:28;;;;;;;7.75;2.55;;;;;;;8.70;59.16;100275.63;5134062;28;20605;-70
2022/12/27 14:36:40;;;;;;;5.63;1.83;;;;;;;8.61;59.52;100279.75;5129854;28;20426;-71
2022/12/27 14:39:58;;;;;;;8.10;1.95;;;;;;;8.57;59.98;100280.00;5132627;28;20058;-72
2022/12/27 14:43:10;;;;;;;9.25;2.35;;;;;;;8.37;59.92;100278.63;5136731;28;20534;-71
2022/12/27 14:46:37;;;;;;;13.80;2.90;;;;;;;8.33;60.68;100288.53;5147912;28;20070;-72
2022/12/27 14:49:49;;;;;;;6.22;2.13;;;;;;;8.59;60.01;100278.13;5139480;28;20046;-72
2022/12/27 14:53:06;;;;;;;6.88;1.83;;;;;;;8.51;60.35;100283.06;5138630;28;20137;-72
2022/12/27 14:56:12;;;;;;;8.98;2.25;;;;;;;8.43;60.65;100284.41;5138347;28;20058;-71
2022/12/27 14:59:38;;;;;;;5.50;1.17;;;;;;;8.42;60.72;100258.09;5142199;28;20065;-71
2022/12/27 15:02:54;;;;;;;9.00;1.83;;;;;;;8.29;60.99;100284.41;5135296;28;20050;-70
2022/12/27 15:06:14;;;;;;;6.88;1.48;;;;;;;8.17;60.85;100262.25;5136032;28;20094;-71
2022/12/27 15:09:29;;;;;;;5.95;2.05;;;;;;;8.21;61.09;100263.78;5139689;28;20437;-71
2022/12/27 15:12:22;;;;;;;5.70;1.50;;;;;;;8.23;60.73;100280.34;5140295;28;20081;-71
2022/12/27 15:15:37;;;;;;;6.25;1.83;;;;;;;8.22;62.16;100276.03;5145148;28;20066;-71
2022/12/27 15:18:55;;;;;;;7.32;1.65;;;;;;;8.34;62.13;100278.81;5141813;28;20049;-71
2022/12/27 15:22:03;;;;;;;4.00;1.73;;;;;;;8.37;60.68;100270.69;5141855;28;20071;-71
2022/12/27 15:25:04;;;;;;;5.38;1.60;;;;;;;8.06;61.20;100229.53;5130716;28;20069;-72
2022/12/27 15:28:24;;;;;;;9.93;2.17;;;;;;;8.42;60.98;100271.28;5132684;28;20521;-73
2022/12/27 15:31:18;;;;;;;5.88;2.13;;;;;;;8.38;60.88;100265.38;5131109;28;20053;-72
2022/12/27 15:34:18;;;;;;;6.07;2.00;;;;;;;8.36;60.68;100259.28;5135807;28;20181;-72
2022/12/27 15:37:46;;;;;;;9.85;2.13;;;;;;;8.29;61.95;100250.06;5137148;28;20064;-72